首页
METAR-TAF:

METAR-TAF

机场 :

新山一國際機場

胡志明, 越南

纬度: 10-49N, 经度: 106-40E, 海拔: 19米

当前天气观测

该预报发布于31分钟前的15:00 UTC
风速8节,风向西转西南,在西南西之间变化
温度 28°C
湿度 89%
气压 1005 hPa
能见度10公里或以上
少量云层高于1700英尺
散云层高于5000英尺

METAR: VVTS 161500Z 25008KT 220V280 9999 FEW017 SCT050 28/26 Q1005 NOSIG

时间: 22:31 (15:31 UTC)

预报

该预报发布于4小时和31分钟前的11:00 UTC
预报有效从16日的 12点(UTC)到 17日的 18点(UTC)
风速10节,风向西转西南
能见度10公里或以上
散云层高于1500英尺
散云层高于4000英尺
短暂存在
从 17日的 04点(UTC)到 17日的 10点(UTC)
风速15节,风向西南,有时为30节阵风
能見度: 3000
多云层高于1200英尺
散云层高于1500英尺, 积雨云.
雷暴, 雨
短暂存在
从 17日的 10点(UTC)到 17日的 15点(UTC)
能見度: 5000
多云层高于1500英尺
少量云层高于1700英尺, 积雨云.
多云层高于4000英尺
阵雨

TAF: VVTS 161100Z 1612/1718 25010KT 9999 SCT015 SCT040 TEMPO 1704/1710 23015G30KT 3000 TSRA BKN012 SCT015CB TEMPO 1710/1715 5000 SHRA BKN015 FEW017CB BKN040

超过4000个机场的气象观测和天气预报(METAR&TAF报告)。

可查询的气象台以黄色和红色小点在地图上表示。

将鼠标移到小点上方,可查看气象台名称。

然后点击查看天气观测和预报。

如需切换地图:点击带黑十字的绿色按钮放大地图;点击带横线的绿色按钮缩小地图;或者点击绿色箭头查看邻近地区的地图。


METAR-TAF: